Time;durP1;ratioP1;P1;durP2;ratioP2;P2;SDS_P1;SDS_P2;PMS_P1;PMS_P2;Temp;Humidity;BMP_temperature;BMP_pressure;BME280_temperature;BME280_humidity;BME280_pressure;Samples;Min_cycle;Max_cycle;Signal;HPM_P1;HPM_P2
2020/08/20 19:01:13;;;;;;;2.4;1.1;;;;;;;25.94;63.02344;955.0356;;;;
2020/08/20 19:03:38;;;;;;;1.7;1.4;;;;;;;25.92;63.23535;955.051;;;;
2020/08/20 19:06:03;;;;;;;2;1.3;;;;;;;25.88;63.62207;955.0566;;;;
2020/08/20 19:08:28;;;;;;;1.5;1.2;;;;;;;25.79;64.37207;955.0688;;;;
2020/08/20 19:10:53;;;;;;;1.6;1.1;;;;;;;25.73;64.57715;955.1393;;;;
2020/08/20 19:13:21;;;;;;;3.6;1.4;;;;;;;25.64;65.58984;955.1484;;;;
2020/08/20 19:15:43;;;;;;;2.3;1.7;;;;;;;25.63;65.56348;955.1873;;;;
2020/08/20 19:18:08;;;;;;;2;1.5;;;;;;;25.56;65.88672;955.1965;;;;
2020/08/20 19:20:33;;;;;;;2.6;1.8;;;;;;;25.49;66.75879;955.2255;;;;
2020/08/20 19:22:58;;;;;;;3.3;2.4;;;;;;;25.38;67.81348;955.2714;;;;
2020/08/20 19:25:23;;;;;;;3;1.8;;;;;;;25.34;68.84277;955.3177;;;;
2020/08/20 19:27:49;;;;;;;4;1.9;;;;;;;25.28;69.67773;955.3337;;;;
2020/08/20 19:30:14;;;;;;;2.7;1.8;;;;;;;25.23;70.23047;955.3809;;;;
2020/08/20 19:32:39;;;;;;;2.8;1.8;;;;;;;25.18;69.6748;955.3264;;;;
2020/08/20 19:35:04;;;;;;;3.6;1.7;;;;;;;25.14;70.04785;955.4055;;;;
2020/08/20 19:37:29;;;;;;;2.4;1.6;;;;;;;25.07;70.89453;955.4008;;;;
2020/08/20 19:39:54;;;;;;;2.6;1.7;;;;;;;25;70.9668;955.4436;;;;
2020/08/20 19:42:20;;;;;;;2.4;1.5;;;;;;;25;70.91895;955.4753;;;;
2020/08/20 19:44:44;;;;;;;2.7;1.5;;;;;;;24.99;71.35645;955.4894;;;;
2020/08/20 19:47:09;;;;;;;3;1.6;;;;;;;24.94;71.32715;955.4794;;;;
2020/08/20 19:49:34;;;;;;;2.3;1.5;;;;;;;24.89;71.38965;955.5195;;;;
2020/08/20 19:51:59;;;;;;;2.8;1.9;;;;;;;24.87;72.20605;955.5406;;;;
2020/08/20 19:54:24;;;;;;;2.1;1.8;;;;;;;24.86;73.07227;955.5232;;;;
2020/08/20 19:56:50;;;;;;;2.1;1.7;;;;;;;24.81;72.71973;955.6021;;;;
2020/08/20 19:59:15;;;;;;;2;1.7;;;;;;;24.79;74.1084;955.6252;;;;
2020/08/20 20:01:40;;;;;;;2.8;1.6;;;;;;;24.77;73.91504;955.5862;;;;
2020/08/20 20:04:05;;;;;;;3.4;1.6;;;;;;;24.68;73.91016;955.6169;;;;
2020/08/20 20:06:30;;;;;;;2.3;1.5;;;;;;;24.65;75.16602;955.63;;;;
2020/08/20 20:08:55;;;;;;;2;1.6;;;;;;;24.65;74.60742;955.605;;;;
2020/08/20 20:11:20;;;;;;;3.1;1.6;;;;;;;24.58;74.70215;955.601;;;;
2020/08/20 20:13:45;;;;;;;2.5;1.5;;;;;;;24.55;74.82813;955.6481;;;;
2020/08/20 20:16:10;;;;;;;2.1;1.4;;;;;;;24.5;75.70996;955.6222;;;;
2020/08/20 20:18:35;;;;;;;2.4;2;;;;;;;24.49;76.2334;955.6005;;;;
2020/08/20 20:21:00;;;;;;;2.9;2;;;;;;;24.43;75.90137;955.6281;;;;
2020/08/20 20:23:25;;;;;;;2.8;1.7;;;;;;;24.42;76.64648;955.6036;;;;
2020/08/20 20:25:50;;;;;;;3.6;1.8;;;;;;;24.35;77.63184;955.5864;;;;
2020/08/20 20:28:16;;;;;;;2.8;1.6;;;;;;;24.34;78.03418;955.5952;;;;
2020/08/20 20:30:42;;;;;;;1.9;1.3;;;;;;;24.28;77.1582;955.5875;;;;
2020/08/20 20:33:07;;;;;;;2.6;1.4;;;;;;;24.25;78.0918;955.5669;;;;
2020/08/20 20:35:32;;;;;;;2.4;1.7;;;;;;;24.2;78.39063;955.5452;;;;
2020/08/20 20:37:58;;;;;;;3.1;1.8;;;;;;;24.16;79.02344;955.5416;;;;
2020/08/20 20:40:22;;;;;;;1.7;1.6;;;;;;;24.14;80.19434;955.5574;;;;
2020/08/20 20:42:47;;;;;;;2;1.6;;;;;;;24.11;80.37891;955.568;;;;
2020/08/20 20:45:15;;;;;;;4.7;1.9;;;;;;;24.09;79.81836;955.5356;;;;
2020/08/20 20:47:41;;;;;;;2.5;1.8;;;;;;;24.07;80.12207;955.5614;;;;
2020/08/20 20:50:06;;;;;;;3.5;2.2;;;;;;;24.04;80.8291;955.5641;;;;
2020/08/20 20:52:31;;;;;;;3.6;2;;;;;;;24;80.87012;955.5084;;;;
2020/08/20 20:54:56;;;;;;;3.1;2;;;;;;;23.98;82.10059;955.5106;;;;
2020/08/20 20:57:21;;;;;;;3.5;1.8;;;;;;;23.95;82.4043;955.4846;;;;
2020/08/20 20:59:48;;;;;;;3.6;1.9;;;;;;;23.94;82.08105;955.5059;;;;
2020/08/20 21:02:14;;;;;;;2.8;1.7;;;;;;;23.87;81.79688;955.495;;;;
2020/08/20 21:04:39;;;;;;;3.8;1.8;;;;;;;23.87;82.50781;955.4885;;;;
2020/08/20 21:07:04;;;;;;;3.7;2;;;;;;;23.84;83.23926;955.5147;;;;
2020/08/20 21:09:29;;;;;;;4.1;2.4;;;;;;;23.82;83.3877;955.5589;;;;
2020/08/20 21:11:55;;;;;;;4.8;2.2;;;;;;;23.82;83.88574;955.5422;;;;
2020/08/20 21:14:20;;;;;;;3.4;2.3;;;;;;;23.8;83.50293;955.4794;;;;
2020/08/20 21:16:45;;;;;;;2.3;2;;;;;;;23.78;84.3877;955.537;;;;
2020/08/20 21:19:10;;;;;;;3.4;1.9;;;;;;;23.75;84.77539;955.5323;;;;
2020/08/20 21:21:35;;;;;;;2.8;1.9;;;;;;;23.68;85.89844;955.4317;;;;
2020/08/20 21:24:00;;;;;;;2.8;2;;;;;;;23.67;86.65723;955.4892;;;;
2020/08/20 21:26:25;;;;;;;3.4;2;;;;;;;23.67;86.27637;955.4961;;;;
2020/08/20 21:28:50;;;;;;;2.8;2.2;;;;;;;23.63;87.77344;955.4934;;;;
2020/08/20 21:31:15;;;;;;;4.2;1.9;;;;;;;23.61;88.14941;955.5028;;;;
2020/08/20 21:33:40;;;;;;;3.9;2;;;;;;;23.57;89.95605;955.5165;;;;
2020/08/20 21:36:06;;;;;;;4;2.1;;;;;;;23.5;91.4707;955.5368;;;;
2020/08/20 21:38:31;;;;;;;3.6;1.7;;;;;;;23.49;90.11816;955.548;;;;
2020/08/20 21:40:56;;;;;;;3.6;1.9;;;;;;;23.48;90.42383;955.5549;;;;
2020/08/20 21:43:21;;;;;;;3.5;1.7;;;;;;;23.45;90.69141;955.5334;;;;
2020/08/20 21:45:48;;;;;;;3.3;1.7;;;;;;;23.41;92.01172;955.5623;;;;
2020/08/20 21:48:14;;;;;;;2.5;1.6;;;;;;;23.37;92.53516;955.5623;;;;
2020/08/20 21:50:39;;;;;;;1.9;1.4;;;;;;;23.34;93.14355;955.5778;;;;
2020/08/20 21:53:04;;;;;;;3.2;1.6;;;;;;;23.3;91.63184;955.5144;;;;
2020/08/20 21:55:29;;;;;;;2.9;1.5;;;;;;;23.3;92.23633;955.5019;;;;
2020/08/20 21:57:54;;;;;;;3;1.8;;;;;;;23.23;93.09766;955.4895;;;;
2020/08/20 22:00:27;;;;;;;3.9;1.8;;;;;;;23.17;93.60742;955.4949;;;;
2020/08/20 22:02:54;;;;;;;3.3;1.8;;;;;;;23.12;95.14746;955.5251;;;;
2020/08/20 22:05:19;;;;;;;4.4;2;;;;;;;23.05;98.0332;955.5436;;;;
2020/08/20 22:07:46;;;;;;;2.5;1.8;;;;;;;23.07;96.55762;955.5513;;;;
2020/08/20 22:10:13;;;;;;;4.3;1.7;;;;;;;23.06;95.69141;955.5714;;;;
2020/08/20 22:12:39;;;;;;;2.8;1.9;;;;;;;23.02;97.74121;955.557;;;;
2020/08/20 22:16:26;;;;;;;4.1;2.1;;;;;;;22.99;99.66797;955.5313;;;;
2020/08/20 22:18:51;;;;;;;2.5;2;;;;;;;22.98;100;955.5254;;;;
2020/08/20 22:21:17;;;;;;;3.1;1.8;;;;;;;22.95;99.82324;955.5349;;;;
2020/08/20 22:23:41;;;;;;;3.5;2.3;;;;;;;22.9;100;955.4603;;;;
2020/08/20 22:26:06;;;;;;;4.8;2.1;;;;;;;22.85;100;955.4662;;;;
2020/08/20 22:28:31;;;;;;;4.1;1.9;;;;;;;22.89;100;955.4769;;;;
2020/08/20 22:30:56;;;;;;;3.7;1.8;;;;;;;22.88;99.74805;955.4761;;;;
2020/08/20 22:33:21;;;;;;;3.1;1.9;;;;;;;22.85;99.1875;955.4656;;;;
2020/08/20 22:35:48;;;;;;;2.5;1.8;;;;;;;22.84;100;955.4484;;;;
2020/08/20 22:38:14;;;;;;;3.9;1.8;;;;;;;22.81;100;955.4529;;;;
2020/08/20 22:40:39;;;;;;;4.3;1.9;;;;;;;22.74;100;955.5251;;;;
2020/08/20 22:43:04;;;;;;;2.5;2;;;;;;;22.76;99.15137;955.5387;;;;
2020/08/20 22:45:29;;;;;;;2.6;2;;;;;;;22.71;99.07129;955.6302;;;;
2020/08/20 22:47:54;;;;;;;2.7;2.1;;;;;;;22.72;98.99023;955.5958;;;;
2020/08/20 22:50:19;;;;;;;3.2;2;;;;;;;22.67;100;955.6606;;;;
2020/08/20 22:52:44;;;;;;;3.7;2;;;;;;;22.58;100;955.6443;;;;
2020/08/20 22:55:09;;;;;;;2.6;2;;;;;;;22.53;100;955.6523;;;;
2020/08/20 22:57:34;;;;;;;3.6;1.8;;;;;;;22.53;100;955.6839;;;;
2020/08/20 22:59:59;;;;;;;3.9;2;;;;;;;22.53;100;955.657;;;;
2020/08/20 23:02:24;;;;;;;3.6;2.2;;;;;;;22.47;100;955.6686;;;;
2020/08/20 23:04:49;;;;;;;2.5;1.8;;;;;;;22.51;100;955.6273;;;;
2020/08/20 23:07:15;;;;;;;2.1;1.6;;;;;;;22.52;100;955.6007;;;;
2020/08/20 23:09:40;;;;;;;2.9;1.9;;;;;;;22.54;100;955.587;;;;
2020/08/20 23:12:05;;;;;;;3.1;2;;;;;;;22.55;100;955.5765;;;;
2020/08/20 23:14:30;;;;;;;3.2;1.8;;;;;;;22.55;100;955.6091;;;;
2020/08/20 23:16:55;;;;;;;2.3;1.9;;;;;;;22.57;100;955.6183;;;;
2020/08/20 23:19:20;;;;;;;3.2;1.6;;;;;;;22.52;100;955.6174;;;;
2020/08/20 23:21:45;;;;;;;2.4;1.7;;;;;;;22.54;100;955.6046;;;;
2020/08/20 23:24:10;;;;;;;2.3;1.6;;;;;;;22.54;100;955.5944;;;;
2020/08/20 23:26:35;;;;;;;2.4;2;;;;;;;22.51;100;955.5812;;;;
2020/08/20 23:32:02;;;;;;;3.5;2.1;;;;;;;22.33;100;955.5975;;;;
2020/08/20 23:34:31;;;;;;;6.5;2.1;;;;;;;22.29;100;955.6172;;;;
2020/08/20 23:36:56;;;;;;;2;1.8;;;;;;;22.26;100;955.6064;;;;
2020/08/20 23:39:21;;;;;;;5.6;2.2;;;;;;;22.26;100;955.6026;;;;
2020/08/20 23:41:47;;;;;;;3.1;2.1;;;;;;;22.22;100;955.6083;;;;
2020/08/20 23:44:12;;;;;;;1.9;1.7;;;;;;;22.23;100;955.5619;;;;
2020/08/20 23:46:37;;;;;;;3.7;1.8;;;;;;;22.21;100;955.5667;;;;
2020/08/20 23:49:02;;;;;;;2.9;1.8;;;;;;;22.17;100;955.5682;;;;
2020/08/20 23:51:27;;;;;;;4;1.9;;;;;;;22.16;100;955.5461;;;;
2020/08/20 23:53:52;;;;;;;2.8;1.8;;;;;;;22.07;100;955.5402;;;;
2020/08/20 23:56:17;;;;;;;2.7;2;;;;;;;22.09;100;955.5285;;;;
2020/08/20 23:58:42;;;;;;;3.7;2;;;;;;;22.04;100;955.4978;;;;
